TNO1122 MSLP-MROC
Flight info
| Callsign | TNO1122 |
|---|---|
| Flight time | 1h 27m |
| Altitude | 19000 |
| Route | ALTEG2E ALTEG UG436 LIB BARRA3L |
| Aircraft | AT75/M-SDFGIRY/S |
Departure
| Time | 2026-05-04 10:00 |
|---|---|
| Airport | El Salvador International Airport Saint Óscar Arnulfo Romero y Galdámez (MSLP) |
Arrival
| Time | 2026-05-04 11:27 |
|---|---|
| Airport | Juan Santamaría International Airport (MROC) |
| Time | Latitude | Longitude | Altitude | Speed | Heading |
|---|---|---|---|---|---|
| 2026-05-04 09:34 | 13.44393 | -89.05663 | 109 ft | 0 kts | 340° |
| 2026-05-04 09:44 | 13.44393 | -89.05664 | 109 ft | 0 kts | 340° |
| 2026-05-04 09:44 | 13.44387 | -89.05661 | 109 ft | 2 kts | 335° |
| 2026-05-04 09:46 | 13.44147 | -89.05928 | 109 ft | 16 kts | 249° |
| 2026-05-04 09:46 | 13.44104 | -89.06044 | 109 ft | 19 kts | 251° |
| 2026-05-04 09:46 | 13.44067 | -89.06152 | 109 ft | 17 kts | 250° |
| 2026-05-04 09:47 | 13.44024 | -89.06277 | 109 ft | 19 kts | 250° |
| 2026-05-04 09:47 | 13.43975 | -89.06413 | 109 ft | 21 kts | 250° |
| 2026-05-04 09:49 | 13.43657 | -89.06964 | 109 ft | 0 kts | 160° |
| 2026-05-04 09:51 | 13.43656 | -89.06964 | 109 ft | 0 kts | 160° |
| 2026-05-04 10:00 | 13.45029 | -89.02916 | 966 ft | 218 kts | 70° |
| 2026-05-04 10:00 | 13.45448 | -89.01357 | 1386 ft | 232 kts | 78° |
| 2026-05-04 10:02 | 13.43132 | -88.91092 | 4620 ft | 198 kts | 131° |
| 2026-05-04 10:04 | 13.36776 | -88.84436 | 7448 ft | 210 kts | 130° |
| 2026-05-04 10:04 | 13.35727 | -88.83306 | 7721 ft | 224 kts | 130° |
| 2026-05-04 10:04 | 13.34641 | -88.82135 | 8046 ft | 231 kts | 130° |
| 2026-05-04 10:04 | 13.33515 | -88.80923 | 8432 ft | 235 kts | 130° |
| 2026-05-04 10:05 | 13.32388 | -88.79712 | 8803 ft | 238 kts | 130° |
| 2026-05-04 10:05 | 13.31237 | -88.78475 | 9179 ft | 240 kts | 130° |
| 2026-05-04 10:05 | 13.30076 | -88.77219 | 9556 ft | 242 kts | 130° |
| 2026-05-04 10:05 | 13.28920 | -88.75977 | 9930 ft | 244 kts | 130° |
| 2026-05-04 10:06 | 13.27733 | -88.74705 | 10315 ft | 245 kts | 130° |
| 2026-05-04 10:06 | 13.26565 | -88.73453 | 10688 ft | 246 kts | 131° |
| 2026-05-04 10:06 | 13.25376 | -88.72180 | 11065 ft | 245 kts | 130° |
| 2026-05-04 10:08 | 13.18308 | -88.64596 | 13314 ft | 245 kts | 130° |
| 2026-05-04 10:08 | 13.17137 | -88.63339 | 13689 ft | 245 kts | 130° |
| 2026-05-04 10:08 | 13.15971 | -88.62087 | 14058 ft | 244 kts | 130° |
| 2026-05-04 10:08 | 13.14794 | -88.60823 | 14434 ft | 244 kts | 130° |
| 2026-05-04 10:09 | 13.13615 | -88.59557 | 14810 ft | 244 kts | 130° |
| 2026-05-04 10:09 | 13.12446 | -88.58303 | 15148 ft | 245 kts | 130° |
| 2026-05-04 10:09 | 13.11268 | -88.57037 | 15429 ft | 249 kts | 130° |
| 2026-05-04 10:09 | 13.10058 | -88.55735 | 15708 ft | 252 kts | 130° |
| 2026-05-04 10:10 | 13.08844 | -88.54430 | 15983 ft | 254 kts | 130° |
| 2026-05-04 10:10 | 13.07623 | -88.53120 | 16258 ft | 255 kts | 131° |
| 2026-05-04 10:10 | 13.06398 | -88.51807 | 16533 ft | 257 kts | 131° |
| 2026-05-04 10:10 | 13.05202 | -88.50525 | 16800 ft | 258 kts | 131° |
| 2026-05-04 10:11 | 13.03950 | -88.49183 | 17078 ft | 259 kts | 131° |
| 2026-05-04 10:11 | 13.02709 | -88.47854 | 17352 ft | 260 kts | 131° |
| 2026-05-04 10:11 | 13.01449 | -88.46505 | 17628 ft | 261 kts | 131° |
| 2026-05-04 10:11 | 13.00208 | -88.45175 | 17901 ft | 261 kts | 131° |
| 2026-05-04 10:12 | 12.98943 | -88.43820 | 18177 ft | 262 kts | 131° |
| 2026-05-04 10:12 | 12.97692 | -88.42480 | 18449 ft | 262 kts | 131° |
| 2026-05-04 10:12 | 12.96436 | -88.41133 | 18707 ft | 263 kts | 131° |
| 2026-05-04 10:12 | 12.95159 | -88.39760 | 18844 ft | 268 kts | 131° |
| 2026-05-04 10:13 | 12.93859 | -88.38367 | 18893 ft | 270 kts | 131° |
| 2026-05-04 10:13 | 12.92563 | -88.36979 | 18901 ft | 271 kts | 131° |
| 2026-05-04 10:13 | 12.91249 | -88.35574 | 18902 ft | 272 kts | 131° |
| 2026-05-04 10:13 | 12.89942 | -88.34177 | 18903 ft | 273 kts | 131° |
| 2026-05-04 10:14 | 12.88634 | -88.32781 | 18903 ft | 274 kts | 131° |
| 2026-05-04 10:14 | 12.87311 | -88.31368 | 18905 ft | 275 kts | 131° |
| 2026-05-04 10:16 | 12.78499 | -88.21942 | 18910 ft | 274 kts | 131° |
| 2026-05-04 10:16 | 12.77179 | -88.20531 | 18911 ft | 274 kts | 132° |
| 2026-05-04 10:16 | 12.75861 | -88.19123 | 18913 ft | 274 kts | 132° |
| 2026-05-04 10:16 | 12.74542 | -88.17714 | 18912 ft | 274 kts | 132° |
| 2026-05-04 10:17 | 12.73221 | -88.16303 | 18912 ft | 274 kts | 132° |
| 2026-05-04 10:17 | 12.71902 | -88.14895 | 18914 ft | 273 kts | 132° |
| 2026-05-04 10:19 | 12.62691 | -88.05065 | 18920 ft | 274 kts | 132° |
| 2026-05-04 10:19 | 12.61371 | -88.03657 | 18920 ft | 274 kts | 132° |
| 2026-05-04 10:19 | 12.60053 | -88.02252 | 18921 ft | 274 kts | 132° |
| 2026-05-04 10:19 | 12.58731 | -88.00842 | 18922 ft | 274 kts | 132° |
| 2026-05-04 10:20 | 12.57430 | -87.99419 | 18922 ft | 274 kts | 131° |
| 2026-05-04 10:20 | 12.56166 | -87.97962 | 18922 ft | 274 kts | 130° |
| 2026-05-04 10:20 | 12.54925 | -87.96485 | 18923 ft | 274 kts | 129° |
| 2026-05-04 10:20 | 12.53699 | -87.94995 | 18923 ft | 274 kts | 129° |
| 2026-05-04 10:21 | 12.52480 | -87.93494 | 18924 ft | 274 kts | 128° |
| 2026-05-04 10:21 | 12.51266 | -87.91988 | 18924 ft | 274 kts | 128° |
| 2026-05-04 10:21 | 12.50070 | -87.90499 | 18925 ft | 274 kts | 128° |
| 2026-05-04 10:21 | 12.48861 | -87.88990 | 18925 ft | 274 kts | 128° |
| 2026-05-04 10:22 | 12.46444 | -87.85966 | 18926 ft | 274 kts | 128° |
| 2026-05-04 10:22 | 12.45236 | -87.84454 | 18928 ft | 274 kts | 128° |
| 2026-05-04 10:22 | 12.44028 | -87.82939 | 18926 ft | 275 kts | 128° |
| 2026-05-04 10:23 | 12.42817 | -87.81420 | 18926 ft | 275 kts | 128° |
| 2026-05-04 10:23 | 12.41607 | -87.79905 | 18926 ft | 275 kts | 128° |
| 2026-05-04 10:25 | 12.33150 | -87.69318 | 18923 ft | 274 kts | 128° |
| 2026-05-04 10:25 | 12.31937 | -87.67806 | 18922 ft | 274 kts | 128° |
| 2026-05-04 10:25 | 12.30725 | -87.66296 | 18922 ft | 275 kts | 128° |
| 2026-05-04 10:25 | 12.29510 | -87.64781 | 18921 ft | 274 kts | 128° |
| 2026-05-04 10:26 | 12.28315 | -87.63291 | 18920 ft | 275 kts | 128° |
| 2026-05-04 10:26 | 12.27105 | -87.61780 | 18920 ft | 275 kts | 128° |
| 2026-05-04 10:26 | 12.25897 | -87.60267 | 18918 ft | 274 kts | 128° |
| 2026-05-04 10:26 | 12.24688 | -87.58757 | 18918 ft | 274 kts | 128° |
| 2026-05-04 10:27 | 12.23478 | -87.57248 | 18917 ft | 275 kts | 128° |
| 2026-05-04 10:27 | 12.22252 | -87.55714 | 18913 ft | 275 kts | 128° |
| 2026-05-04 10:27 | 12.21054 | -87.54218 | 18914 ft | 275 kts | 128° |
| 2026-05-04 10:27 | 12.19841 | -87.52705 | 18914 ft | 275 kts | 128° |
| 2026-05-04 10:28 | 12.18627 | -87.51193 | 18914 ft | 275 kts | 128° |
| 2026-05-04 10:28 | 12.17409 | -87.49676 | 18913 ft | 275 kts | 128° |
| 2026-05-04 10:28 | 12.16194 | -87.48159 | 18913 ft | 276 kts | 128° |
| 2026-05-04 10:28 | 12.14982 | -87.46640 | 18911 ft | 276 kts | 128° |
| 2026-05-04 10:29 | 12.13778 | -87.45138 | 18896 ft | 276 kts | 128° |
| 2026-05-04 10:29 | 12.12555 | -87.43614 | 18884 ft | 275 kts | 128° |
| 2026-05-04 10:29 | 12.11353 | -87.42114 | 18880 ft | 274 kts | 128° |
| 2026-05-04 10:29 | 12.10144 | -87.40610 | 18879 ft | 272 kts | 128° |
| 2026-05-04 10:30 | 12.08935 | -87.39108 | 18880 ft | 271 kts | 128° |
| 2026-05-04 10:30 | 12.07752 | -87.37637 | 18880 ft | 270 kts | 128° |
| 2026-05-04 10:30 | 12.06555 | -87.36150 | 18880 ft | 270 kts | 128° |
| 2026-05-04 10:30 | 12.05357 | -87.34660 | 18880 ft | 269 kts | 128° |
| 2026-05-04 10:31 | 12.04181 | -87.33198 | 18880 ft | 269 kts | 128° |
| 2026-05-04 10:31 | 12.02987 | -87.31713 | 18880 ft | 268 kts | 128° |
| 2026-05-04 10:32 | 11.95932 | -87.22920 | 18880 ft | 267 kts | 128° |
| 2026-05-04 10:33 | 11.94753 | -87.21455 | 18880 ft | 267 kts | 128° |
| 2026-05-04 10:33 | 11.93576 | -87.19994 | 18891 ft | 266 kts | 129° |
| 2026-05-04 10:33 | 11.92401 | -87.18533 | 18897 ft | 266 kts | 129° |
| 2026-05-04 10:33 | 11.91226 | -87.17070 | 18899 ft | 266 kts | 129° |
| 2026-05-04 10:34 | 11.90048 | -87.15608 | 18900 ft | 266 kts | 129° |
| 2026-05-04 10:34 | 11.88869 | -87.14145 | 18901 ft | 267 kts | 129° |
| 2026-05-04 10:34 | 11.87690 | -87.12683 | 18900 ft | 267 kts | 129° |
| 2026-05-04 10:34 | 11.86509 | -87.11218 | 18899 ft | 267 kts | 129° |
| 2026-05-04 10:35 | 11.85326 | -87.09750 | 18899 ft | 268 kts | 129° |
| 2026-05-04 10:35 | 11.84142 | -87.08278 | 18898 ft | 268 kts | 129° |
| 2026-05-04 10:35 | 11.82971 | -87.06824 | 18898 ft | 269 kts | 129° |
| 2026-05-04 10:35 | 11.81786 | -87.05353 | 18897 ft | 268 kts | 129° |
| 2026-05-04 10:36 | 11.80599 | -87.03881 | 18897 ft | 269 kts | 129° |
| 2026-05-04 10:36 | 11.79413 | -87.02408 | 18896 ft | 269 kts | 129° |
| 2026-05-04 10:36 | 11.78226 | -87.00931 | 18894 ft | 269 kts | 129° |
| 2026-05-04 10:36 | 11.77040 | -86.99454 | 18893 ft | 269 kts | 129° |
| 2026-05-04 10:37 | 11.75853 | -86.97976 | 18894 ft | 269 kts | 129° |
| 2026-05-04 10:37 | 11.74664 | -86.96497 | 18894 ft | 270 kts | 129° |
| 2026-05-04 10:37 | 11.73472 | -86.95018 | 18894 ft | 270 kts | 129° |
| 2026-05-04 10:37 | 11.72277 | -86.93540 | 18894 ft | 269 kts | 129° |
| 2026-05-04 10:39 | 11.65138 | -86.84705 | 18892 ft | 268 kts | 129° |
| 2026-05-04 10:39 | 11.63965 | -86.83250 | 18892 ft | 268 kts | 129° |
| 2026-05-04 10:39 | 11.62777 | -86.81780 | 18892 ft | 268 kts | 129° |
| 2026-05-04 10:40 | 11.61599 | -86.80324 | 18892 ft | 268 kts | 129° |
| 2026-05-04 10:40 | 11.60408 | -86.78852 | 18891 ft | 267 kts | 129° |
| 2026-05-04 10:40 | 11.59234 | -86.77401 | 18891 ft | 267 kts | 129° |
| 2026-05-04 10:40 | 11.58042 | -86.75923 | 18891 ft | 267 kts | 129° |
| 2026-05-04 10:41 | 11.56871 | -86.74473 | 18891 ft | 267 kts | 129° |
| 2026-05-04 10:41 | 11.55700 | -86.73019 | 18891 ft | 267 kts | 129° |
| 2026-05-04 10:41 | 11.54508 | -86.71544 | 18891 ft | 267 kts | 129° |
| 2026-05-04 10:41 | 11.53340 | -86.70102 | 18891 ft | 267 kts | 129° |
| 2026-05-04 10:42 | 11.52150 | -86.68633 | 18891 ft | 267 kts | 129° |
| 2026-05-04 10:42 | 11.50976 | -86.67184 | 18891 ft | 267 kts | 129° |
| 2026-05-04 10:42 | 11.49786 | -86.65714 | 18891 ft | 267 kts | 129° |
| 2026-05-04 10:42 | 11.48606 | -86.64258 | 18892 ft | 268 kts | 129° |
| 2026-05-04 10:43 | 11.47412 | -86.62784 | 18892 ft | 268 kts | 129° |
| 2026-05-04 10:44 | 11.39137 | -86.52547 | 18892 ft | 267 kts | 129° |
| 2026-05-04 10:45 | 11.37947 | -86.51076 | 18892 ft | 268 kts | 129° |
| 2026-05-04 10:45 | 11.36777 | -86.49631 | 18893 ft | 267 kts | 129° |
| 2026-05-04 10:45 | 11.35582 | -86.48160 | 18893 ft | 267 kts | 129° |
| 2026-05-04 10:45 | 11.34405 | -86.46711 | 18894 ft | 267 kts | 129° |
| 2026-05-04 10:46 | 11.33216 | -86.45248 | 18894 ft | 267 kts | 129° |
| 2026-05-04 10:46 | 11.32027 | -86.43783 | 18895 ft | 267 kts | 129° |
| 2026-05-04 10:46 | 11.30851 | -86.42335 | 18895 ft | 267 kts | 129° |
| 2026-05-04 10:46 | 11.29665 | -86.40874 | 18895 ft | 267 kts | 129° |
| 2026-05-04 10:47 | 11.28478 | -86.39412 | 18896 ft | 267 kts | 129° |
| 2026-05-04 10:47 | 11.27296 | -86.37952 | 18896 ft | 267 kts | 129° |
| 2026-05-04 10:47 | 11.26113 | -86.36490 | 18897 ft | 268 kts | 129° |
| 2026-05-04 10:47 | 11.24942 | -86.35046 | 18898 ft | 268 kts | 129° |
| 2026-05-04 10:49 | 11.16619 | -86.24778 | 18918 ft | 269 kts | 129° |
| 2026-05-04 10:49 | 11.15415 | -86.23301 | 18919 ft | 269 kts | 129° |
| 2026-05-04 10:50 | 11.14234 | -86.21852 | 18920 ft | 269 kts | 129° |
| 2026-05-04 10:51 | 11.05865 | -86.11565 | 18918 ft | 270 kts | 129° |
| 2026-05-04 10:52 | 11.04664 | -86.10087 | 18919 ft | 269 kts | 129° |
| 2026-05-04 10:52 | 11.03460 | -86.08608 | 18921 ft | 270 kts | 130° |
| 2026-05-04 10:52 | 11.02271 | -86.07153 | 18921 ft | 271 kts | 129° |
| 2026-05-04 10:54 | 10.93761 | -85.96695 | 18923 ft | 272 kts | 129° |
| 2026-05-04 10:54 | 10.92571 | -85.95229 | 18924 ft | 271 kts | 130° |
| 2026-05-04 10:56 | 10.84139 | -85.85015 | 18926 ft | 268 kts | 131° |
| 2026-05-04 10:56 | 10.82919 | -85.83574 | 18926 ft | 268 kts | 131° |
| 2026-05-04 10:56 | 10.81709 | -85.82148 | 18928 ft | 268 kts | 131° |
| 2026-05-04 10:57 | 10.80489 | -85.80709 | 18928 ft | 268 kts | 131° |
| 2026-05-04 10:57 | 10.79271 | -85.79272 | 18928 ft | 268 kts | 131° |
| 2026-05-04 10:57 | 10.78072 | -85.77844 | 18928 ft | 268 kts | 130° |
| 2026-05-04 10:57 | 10.76867 | -85.76383 | 18928 ft | 268 kts | 130° |
| 2026-05-04 10:58 | 10.75678 | -85.74923 | 18928 ft | 268 kts | 130° |
| 2026-05-04 10:58 | 10.74493 | -85.73457 | 18928 ft | 267 kts | 129° |
| 2026-05-04 10:58 | 10.73330 | -85.72009 | 18929 ft | 267 kts | 129° |
| 2026-05-04 10:58 | 10.72155 | -85.70544 | 18928 ft | 267 kts | 129° |
| 2026-05-04 10:59 | 10.70983 | -85.69082 | 18928 ft | 267 kts | 129° |
| 2026-05-04 10:59 | 10.69813 | -85.67621 | 18928 ft | 266 kts | 129° |
| 2026-05-04 10:59 | 10.68644 | -85.66159 | 18929 ft | 266 kts | 129° |
| 2026-05-04 10:59 | 10.67473 | -85.64697 | 18929 ft | 266 kts | 129° |
| 2026-05-04 11:00 | 10.66306 | -85.63238 | 18929 ft | 266 kts | 129° |
| 2026-05-04 11:01 | 10.58584 | -85.52639 | 18930 ft | 268 kts | 120° |
| 2026-05-04 11:02 | 10.57700 | -85.50971 | 18930 ft | 268 kts | 118° |
| 2026-05-04 11:02 | 10.56844 | -85.49286 | 18929 ft | 268 kts | 117° |
| 2026-05-04 11:05 | 10.45556 | -85.26009 | 18932 ft | 269 kts | 117° |
| 2026-05-04 11:06 | 10.44729 | -85.24304 | 18933 ft | 269 kts | 117° |
| 2026-05-04 11:06 | 10.43903 | -85.22600 | 18934 ft | 269 kts | 117° |
| 2026-05-04 11:06 | 10.43074 | -85.20891 | 18934 ft | 270 kts | 117° |
| 2026-05-04 11:06 | 10.42240 | -85.19171 | 18935 ft | 270 kts | 117° |
| 2026-05-04 11:08 | 10.36344 | -85.07030 | 17194 ft | 273 kts | 116° |
| 2026-05-04 11:10 | 10.30534 | -84.95071 | 15272 ft | 273 kts | 116° |
| 2026-05-04 11:12 | 10.24602 | -84.82882 | 13345 ft | 269 kts | 115° |
| 2026-05-04 11:12 | 10.23781 | -84.81198 | 13072 ft | 267 kts | 115° |
| 2026-05-04 11:12 | 10.22948 | -84.79518 | 12795 ft | 265 kts | 117° |
| 2026-05-04 11:12 | 10.22034 | -84.77913 | 12524 ft | 265 kts | 120° |
| 2026-05-04 11:13 | 10.21052 | -84.76327 | 12248 ft | 264 kts | 121° |
| 2026-05-04 11:13 | 10.20046 | -84.74765 | 11972 ft | 262 kts | 122° |
| 2026-05-04 11:13 | 10.19038 | -84.73227 | 11695 ft | 261 kts | 122° |
| 2026-05-04 11:13 | 10.18037 | -84.71713 | 11422 ft | 259 kts | 122° |
| 2026-05-04 11:14 | 10.17022 | -84.70191 | 11145 ft | 258 kts | 122° |
| 2026-05-04 11:14 | 10.16023 | -84.68698 | 10872 ft | 257 kts | 122° |
| 2026-05-04 11:14 | 10.15013 | -84.67190 | 10665 ft | 254 kts | 122° |
| 2026-05-04 11:16 | 10.06603 | -84.59449 | 9039 ft | 208 kts | 150° |
| 2026-05-04 11:16 | 10.05297 | -84.58792 | 8766 ft | 209 kts | 150° |
| 2026-05-04 11:16 | 10.03997 | -84.58142 | 8606 ft | 206 kts | 150° |
| 2026-05-04 11:17 | 10.02728 | -84.57503 | 8450 ft | 205 kts | 150° |
| 2026-05-04 11:17 | 10.01444 | -84.56855 | 8290 ft | 204 kts | 150° |
| 2026-05-04 11:19 | 9.92492 | -84.52197 | 7200 ft | 207 kts | 149° |
| 2026-05-04 11:19 | 9.91273 | -84.51406 | 7046 ft | 207 kts | 143° |
| 2026-05-04 11:19 | 9.90137 | -84.50515 | 6874 ft | 207 kts | 134° |
| 2026-05-04 11:19 | 9.89423 | -84.49287 | 6710 ft | 203 kts | 108° |
| 2026-05-04 11:20 | 9.89242 | -84.47871 | 6593 ft | 200 kts | 90° |
| 2026-05-04 11:20 | 9.89394 | -84.46494 | 6541 ft | 196 kts | 79° |
| 2026-05-04 11:20 | 9.89755 | -84.45162 | 6528 ft | 193 kts | 71° |
| 2026-05-04 11:20 | 9.90248 | -84.43915 | 6527 ft | 192 kts | 66° |
| 2026-05-04 11:22 | 9.93900 | -84.35462 | 6570 ft | 166 kts | 72° |
| 2026-05-04 11:22 | 9.94260 | -84.34351 | 6371 ft | 168 kts | 71° |
| 2026-05-04 11:23 | 9.94655 | -84.33217 | 6034 ft | 173 kts | 70° |
| 2026-05-04 11:23 | 9.95090 | -84.32064 | 5592 ft | 175 kts | 69° |
| 2026-05-04 11:24 | 9.97564 | -84.25624 | 3755 ft | 158 kts | 68° |
| 2026-05-04 11:25 | 9.97962 | -84.24581 | 3561 ft | 158 kts | 68° |
| 2026-05-04 11:25 | 9.98380 | -84.23544 | 3378 ft | 157 kts | 68° |
| 2026-05-04 11:25 | 9.98763 | -84.22522 | 3160 ft | 154 kts | 69° |
| 2026-05-04 11:26 | 9.99393 | -84.20836 | 3029 ft | 80 kts | 68° |
| 2026-05-04 11:27 | 9.99650 | -84.20462 | 3029 ft | 4 kts | 324° |
| 2026-05-04 11:28 | 9.99702 | -84.20481 | 3029 ft | 8 kts | 338° |
| 2026-05-04 11:28 | 9.99718 | -84.20487 | 3029 ft | 0 kts | 338° |